Terminal Aerodrome Forecast
Issued by NWS

Current Version | Previous Version | Text Only | Print | Product List | Glossary Off
Versions: 1 2 3 4 5 6 7 8 9 10 11 12 13 14 15 16

792
FTUS41 KPBZ 221720
TAFHLG
TAF
KHLG 221720Z 2218/2318 27004KT P6SM BKN040
     FM222300 VRB03KT P6SM SKC=

USA.gov is the U.S. government's official web portal to all federal, state and local government web resources and services.